createdAt,value
2023-05-23T00:00:26.080Z,25.20
2023-05-23T00:01:27.770Z,25.5
2023-05-23T00:02:25.142Z,26.10
2023-05-23T00:03:25.666Z,24.70
2023-05-23T00:04:25.193Z,24.39
2023-05-23T00:05:24.709Z,24.70
2023-05-23T00:06:24.589Z,24.79
2023-05-23T00:07:24.508Z,25.20
2023-05-23T00:08:25.009Z,24.60
2023-05-23T00:09:25.276Z,25.10
2023-05-23T00:10:25.317Z,24.39
2023-05-23T00:11:25.195Z,26.79
2023-05-23T00:12:24.554Z,23.39
2023-05-23T00:13:24.529Z,22.89
2023-05-23T00:14:24.551Z,23.39
2023-05-23T00:15:24.764Z,25.29
2023-05-23T00:16:25.217Z,22.5
2023-05-23T00:17:24.515Z,23.39
2023-05-23T00:18:25.151Z,23
2023-05-23T00:19:25.025Z,22
2023-05-23T00:20:25.436Z,23.20
2023-05-23T00:21:24.789Z,22.39
2023-05-23T00:23:24.658Z,21.70
2023-05-23T00:24:24.877Z,22.39
2023-05-23T00:25:25.109Z,22
2023-05-23T00:26:24.666Z,21.10
2023-05-23T00:27:24.727Z,21
2023-05-23T00:28:24.956Z,20.10
2023-05-23T00:29:24.897Z,20.89
2023-05-23T00:30:25.565Z,19.39
2023-05-23T00:31:24.672Z,20.20
2023-05-23T00:32:25.048Z,18.79
2023-05-23T00:33:25.133Z,19
2023-05-23T00:34:25.572Z,18.5
2023-05-23T00:35:24.836Z,17.60
2023-05-23T00:36:24.500Z,16.70
2023-05-23T00:37:25.017Z,16.89
2023-05-23T00:38:24.856Z,17.39
2023-05-23T00:39:24.932Z,15.30
2023-05-23T00:40:25.262Z,15.89
2023-05-23T00:41:24.776Z,16
2023-05-23T00:42:25.133Z,16.70
2023-05-23T00:43:25.012Z,17.70
2023-05-23T00:44:25.140Z,17.20
2023-05-23T00:45:25.730Z,16.60
2023-05-23T00:47:25.405Z,17.60
2023-05-23T00:48:25.060Z,17.79
2023-05-23T00:49:24.727Z,19.10
2023-05-23T00:50:25.434Z,17.60
2023-05-23T00:51:24.854Z,19
2023-05-23T00:52:25.306Z,17.20
2023-05-23T00:53:24.941Z,16.70
2023-05-23T00:54:25.050Z,17.60
2023-05-23T00:55:24.993Z,17.5
2023-05-23T00:56:25.251Z,19.60
2023-05-23T00:57:24.781Z,18.60
2023-05-23T00:58:25.184Z,18.79
2023-05-23T00:59:24.887Z,17.29
2023-05-23T01:00:26.305Z,18.20
2023-05-23T01:01:25.066Z,18.5
2023-05-23T01:02:24.634Z,17.5
2023-05-23T01:04:25.321Z,18.5
2023-05-23T01:05:25.431Z,17
2023-05-23T01:06:24.858Z,17.60
2023-05-23T01:07:24.867Z,18
2023-05-23T01:08:25.047Z,16.29
2023-05-23T01:09:24.869Z,15.89
2023-05-23T01:10:25.596Z,16.5
2023-05-23T01:11:25.098Z,17.89
2023-05-23T01:12:25.215Z,17.5
2023-05-23T01:13:24.708Z,18
2023-05-23T01:14:24.872Z,17.20
2023-05-23T01:15:25.368Z,16.89
2023-05-23T01:16:25.159Z,16.60
2023-05-23T01:17:24.785Z,16.10
2023-05-23T01:18:24.934Z,17.39
2023-05-23T01:19:25.004Z,16.29
2023-05-23T01:20:25.492Z,17.20
2023-05-23T01:21:24.649Z,19.39
2023-05-23T01:22:24.874Z,18.60
2023-05-23T01:24:24.689Z,19.5
2023-05-23T01:25:25.055Z,18.5
2023-05-23T01:26:24.899Z,18.20
2023-05-23T01:27:25.198Z,18.79
2023-05-23T01:28:24.565Z,18.70
2023-05-23T01:29:24.842Z,18.79
2023-05-23T01:30:25.314Z,18.10
2023-05-23T01:31:24.854Z,17.20
2023-05-23T01:32:25.100Z,17.39
2023-05-23T01:33:24.503Z,18.10
2023-05-23T01:34:25.065Z,18.29
2023-05-23T01:35:24.824Z,17.70
2023-05-23T01:36:24.979Z,17.60
2023-05-23T01:37:25.013Z,18.39
2023-05-23T01:38:24.895Z,18.70
2023-05-23T01:39:25.004Z,18.60
2023-05-23T01:40:25.456Z,17.10
2023-05-23T01:41:24.626Z,16.39
2023-05-23T01:42:24.994Z,17
2023-05-23T01:43:25.581Z,15.69
2023-05-23T01:44:25.590Z,16.89
2023-05-23T01:45:25.303Z,16.60
2023-05-23T01:46:25.209Z,17.39
2023-05-23T01:47:25.087Z,17
2023-05-23T01:48:25.294Z,16.70
2023-05-23T01:49:25.186Z,17.5
2023-05-23T01:50:25.343Z,17.60
2023-05-23T01:51:24.967Z,17.39
2023-05-23T01:52:25.471Z,18.60
2023-05-23T01:53:25.166Z,18.29
2023-05-23T01:54:25.257Z,18.20
2023-05-23T01:55:25.040Z,17.5
2023-05-23T01:56:24.697Z,17.29
2023-05-23T01:57:25.075Z,17.79
2023-05-23T01:58:25.309Z,18.29
2023-05-23T01:59:24.603Z,17.79
2023-05-23T02:00:26.846Z,17.29
2023-05-23T02:01:25.468Z,16.29
2023-05-23T02:02:24.936Z,18.29
2023-05-23T02:03:24.553Z,18.20
2023-05-23T02:04:25.518Z,17.5
2023-05-23T02:05:25.440Z,18.10
2023-05-23T02:06:25.450Z,17.20
2023-05-23T02:07:24.947Z,16.60
2023-05-23T02:09:24.599Z,16.89
2023-05-23T02:11:25.249Z,18.39
2023-05-23T02:12:24.801Z,20.29
2023-05-23T02:13:24.949Z,19.10
2023-05-23T02:14:25.421Z,19.89
2023-05-23T02:15:24.989Z,19.79
2023-05-23T02:16:24.607Z,20.29
2023-05-23T02:17:25.072Z,18.89
2023-05-23T02:18:24.415Z,19.29
2023-05-23T02:19:24.755Z,18.10
2023-05-23T02:20:25.408Z,19.70
2023-05-23T02:21:24.616Z,18.39
2023-05-23T02:22:24.934Z,17.79
2023-05-23T02:23:25.598Z,17.89
2023-05-23T02:25:25.140Z,18
2023-05-23T02:26:24.917Z,17.79
2023-05-23T02:27:25.127Z,16.89
2023-05-23T02:28:25.357Z,17
2023-05-23T02:29:25.082Z,15.69
2023-05-23T02:30:25.893Z,15.10
2023-05-23T02:31:25.231Z,16.10
2023-05-23T02:32:24.817Z,14.80
2023-05-23T02:34:24.510Z,14.60
2023-05-23T02:35:25.369Z,14.39
2023-05-23T02:36:25.303Z,13.89
2023-05-23T02:37:24.465Z,13.39
2023-05-23T02:38:25.523Z,13
2023-05-23T02:39:25.591Z,13.19
2023-05-23T02:40:25.629Z,12.80
2023-05-23T02:41:25.301Z,13
2023-05-23T02:42:24.877Z,11.80
2023-05-23T02:43:25.049Z,12.10
2023-05-23T02:44:25.216Z,11.39
2023-05-23T02:45:24.981Z,10.39
2023-05-23T02:46:24.743Z,11.10
2023-05-23T02:47:25.801Z,10
2023-05-23T02:49:24.932Z,9.399
2023-05-23T02:50:25.214Z,9.100
2023-05-23T02:51:25.502Z,8.899
2023-05-23T02:52:24.603Z,8.399
2023-05-23T02:53:24.909Z,8.800
2023-05-23T02:54:25.376Z,8
2023-05-23T02:55:25.446Z,7.699
2023-05-23T02:56:25.215Z,7.599
2023-05-23T02:57:24.678Z,7.400
2023-05-23T02:58:25.515Z,8.300
2023-05-23T02:59:25.039Z,7.699
2023-05-23T03:00:26.589Z,7
2023-05-23T03:01:24.978Z,7.099
2023-05-23T03:03:24.818Z,6.800
2023-05-23T03:04:25.467Z,6.900
2023-05-23T03:05:24.585Z,7.199
2023-05-23T03:06:25.370Z,7.300
2023-05-23T03:07:28.066Z,7.199
2023-05-23T03:08:25.077Z,7.300
2023-05-23T03:09:24.998Z,7
2023-05-23T03:10:25.463Z,7.199
2023-05-23T03:11:24.726Z,7.599
2023-05-23T03:13:25.389Z,8
2023-05-23T03:14:24.375Z,7.599
2023-05-23T03:15:24.733Z,8.300
2023-05-23T03:16:25.185Z,8.399
2023-05-23T03:17:25.236Z,8.699
2023-05-23T03:18:24.644Z,8.100
2023-05-23T03:19:24.842Z,8.399
2023-05-23T03:20:25.231Z,8
2023-05-23T03:21:25.263Z,8.300
2023-05-23T03:22:24.589Z,7.599
2023-05-23T03:23:24.910Z,7.800
2023-05-23T03:24:24.808Z,7.199
2023-05-23T03:25:25.306Z,7.099
2023-05-23T03:26:24.860Z,7.599
2023-05-23T03:27:25.213Z,7.099
2023-05-23T03:28:24.603Z,6.900
2023-05-23T03:29:24.611Z,7
2023-05-23T03:30:25.437Z,6.900
2023-05-23T03:31:24.777Z,6.800
2023-05-23T03:32:25.154Z,7
2023-05-23T03:33:43.741Z,7.5
2023-05-23T03:34:25.021Z,8.199
2023-05-23T03:35:25.107Z,7.900
2023-05-23T03:36:24.820Z,8.100
2023-05-23T03:37:24.787Z,8.300
2023-05-23T03:38:25.251Z,8.800
2023-05-23T03:39:24.507Z,8.399
2023-05-23T03:40:24.854Z,8.600
2023-05-23T03:41:24.832Z,8.300
2023-05-23T03:43:25.119Z,8.699
2023-05-23T03:44:25.066Z,9.199
2023-05-23T03:45:25.090Z,8.800
2023-05-23T03:46:25.010Z,8.399
2023-05-23T03:47:25.616Z,8.800
2023-05-23T03:48:25.182Z,8.199
2023-05-23T03:49:25.044Z,8.399
2023-05-23T03:50:25.412Z,8.699
2023-05-23T03:51:24.530Z,8.399
2023-05-23T03:52:24.500Z,8.5
2023-05-23T03:53:25.207Z,9
2023-05-23T03:54:24.476Z,8.199
2023-05-23T03:55:25.061Z,7.800
2023-05-23T03:56:24.486Z,8.199
2023-05-23T03:57:24.842Z,8.300
2023-05-23T03:58:25.490Z,7.699
2023-05-23T03:59:24.830Z,7.099
2023-05-23T04:00:26.540Z,8
2023-05-23T04:01:25.090Z,7.199
2023-05-23T04:02:25.876Z,7.699
2023-05-23T04:03:25.754Z,7.5
2023-05-23T04:04:25.713Z,7.400
2023-05-23T04:05:25.381Z,7.699
2023-05-23T04:06:24.972Z,8.300
2023-05-23T04:07:25.493Z,8.699
2023-05-23T04:08:23.882Z,8.600
2023-05-23T04:09:25.111Z,8.300
2023-05-23T04:10:25.450Z,9.199
2023-05-23T04:11:24.301Z,9.100
2023-05-23T04:12:24.979Z,8.899
2023-05-23T04:13:25.216Z,9.100
2023-05-23T04:14:24.737Z,9.800
2023-05-23T04:15:25.582Z,9.600
2023-05-23T04:16:25.014Z,11.10
2023-05-23T04:17:25.567Z,11.19
2023-05-23T04:18:24.720Z,11.69
2023-05-23T04:19:25.034Z,11.19
2023-05-23T04:20:25.393Z,12.10
2023-05-23T04:21:24.671Z,11.89
2023-05-23T04:22:25.017Z,12.60
2023-05-23T04:23:24.923Z,12.89
2023-05-23T04:24:24.987Z,12.60
2023-05-23T04:25:25.269Z,12.69
2023-05-23T04:26:24.990Z,13.5
2023-05-23T04:27:25.212Z,13.69
2023-05-23T04:28:24.544Z,13.10
2023-05-23T04:29:24.827Z,13.80
2023-05-23T04:30:25.518Z,13.10
2023-05-23T04:31:24.883Z,12.5
2023-05-23T04:32:24.871Z,13.5
2023-05-23T04:33:25.259Z,12.89
2023-05-23T04:35:25.389Z,12.5
2023-05-23T04:36:25.567Z,12.89
2023-05-23T04:37:24.949Z,12.80
2023-05-23T04:39:24.604Z,12.89
2023-05-23T04:40:25.316Z,11.5
2023-05-23T04:41:24.745Z,12.10
2023-05-23T04:42:25.011Z,12.19
2023-05-23T04:43:24.624Z,11.69
2023-05-23T04:44:24.672Z,11.19
2023-05-23T04:45:25.316Z,11
2023-05-23T04:46:25.026Z,11.30
2023-05-23T04:47:24.802Z,11.60
2023-05-23T04:48:25.405Z,10.89
2023-05-23T04:49:25.079Z,11.80
2023-05-23T04:50:25.540Z,11.30
2023-05-23T04:51:25.032Z,11
2023-05-23T04:52:24.963Z,11.19
2023-05-23T04:53:25.133Z,11.10
2023-05-23T04:54:25.655Z,10.80
2023-05-23T04:55:25.740Z,11
2023-05-23T04:56:25.495Z,10.80
2023-05-23T04:58:24.977Z,10.39
2023-05-23T04:59:24.978Z,10.10
2023-05-23T05:00:26.418Z,10.5
2023-05-23T05:03:25.026Z,9.800
2023-05-23T05:04:25.616Z,9.699
2023-05-23T05:06:24.896Z,10.30
2023-05-23T05:07:25.643Z,9.800
2023-05-23T05:08:25.271Z,9.199
2023-05-23T05:10:25.521Z,9.699
2023-05-23T05:11:24.632Z,9.899
2023-05-23T05:12:25.350Z,9.399
2023-05-23T05:13:24.745Z,9.300
2023-05-23T05:14:25.284Z,8.800
2023-05-23T05:15:25.102Z,8.199
2023-05-23T05:16:25.225Z,8.899
2023-05-23T05:17:25.045Z,8.300
2023-05-23T05:18:24.941Z,8.899
2023-05-23T05:20:31.263Z,9.199
2023-05-23T05:21:24.864Z,8.600
2023-05-23T05:22:25.278Z,8.699
2023-05-23T05:23:25.027Z,9.199
2023-05-23T05:24:25.456Z,8.399
2023-05-23T05:25:25.280Z,8.899
2023-05-23T05:26:25.020Z,8.600
2023-05-23T05:28:25.185Z,8.300
2023-05-23T05:29:24.871Z,8.800
2023-05-23T05:30:25.368Z,8.399
2023-05-23T05:31:25.366Z,8.100
2023-05-23T05:32:25.023Z,8.199
2023-05-23T05:33:24.584Z,7.800
2023-05-23T05:34:33.385Z,8.5
2023-05-23T05:35:25.302Z,8
2023-05-23T05:36:24.690Z,8.199
2023-05-23T05:37:25.239Z,8.300
2023-05-23T05:38:24.935Z,7.800
2023-05-23T05:39:24.920Z,8.600
2023-05-23T05:40:25.719Z,8.100
2023-05-23T05:41:24.973Z,8.600
2023-05-23T05:42:25.488Z,8.100
2023-05-23T05:43:24.539Z,8.199
2023-05-23T05:44:24.910Z,7.699
2023-05-23T05:45:25.503Z,8.399
2023-05-23T05:46:24.803Z,8.100
2023-05-23T05:47:25.138Z,8.399
2023-05-23T05:48:24.831Z,8.600
2023-05-23T05:49:25.319Z,7.400
2023-05-23T05:50:24.851Z,7.699
2023-05-23T05:51:24.944Z,7.400
2023-05-23T05:52:25.322Z,8.199
2023-05-23T05:53:24.874Z,7.300
2023-05-23T05:54:25.459Z,8.5
2023-05-23T05:55:25.282Z,8
2023-05-23T05:56:24.837Z,8.199
2023-05-23T05:57:25.454Z,8
2023-05-23T05:58:25.197Z,8.100
2023-05-23T05:59:24.898Z,8.399
2023-05-23T06:00:26.453Z,8.300
2023-05-23T06:01:24.965Z,8.100
2023-05-23T06:02:43.956Z,8.199
2023-05-23T06:03:24.503Z,8
2023-05-23T06:04:25.553Z,7.900
2023-05-23T06:06:25.273Z,8.100
2023-05-23T06:07:24.723Z,7.5
2023-05-23T06:08:25.410Z,7.099
2023-05-23T06:09:24.738Z,7.900
2023-05-23T06:10:25.403Z,7.400
2023-05-23T06:11:24.961Z,7.300
2023-05-23T06:12:25.187Z,7.099
2023-05-23T06:13:24.766Z,7.400
2023-05-23T06:14:24.892Z,7.300
2023-05-23T06:15:25.509Z,7.5
2023-05-23T06:16:25.397Z,7.900
2023-05-23T06:17:24.886Z,7.800
2023-05-23T06:18:24.803Z,7.300
2023-05-23T06:20:24.986Z,7.699
2023-05-23T06:21:25.328Z,7.599
2023-05-23T06:22:25.111Z,7.199
2023-05-23T06:23:25.277Z,7.699
2023-05-23T06:24:25.387Z,7.599
2023-05-23T06:26:25.440Z,7.099
2023-05-23T06:27:25.479Z,8.100
2023-05-23T06:28:25.250Z,7.5
2023-05-23T06:29:25.239Z,8
2023-05-23T06:30:25.444Z,7.400
2023-05-23T06:31:25.133Z,7.599
2023-05-23T06:32:25.346Z,7.699
2023-05-23T06:33:25.048Z,7.400
2023-05-23T06:35:25.262Z,7.800
2023-05-23T06:36:25.155Z,8.100
2023-05-23T06:38:25.040Z,7.099
2023-05-23T06:39:25.278Z,8.100
2023-05-23T06:41:31.510Z,8
2023-05-23T06:43:25.168Z,8.300
2023-05-23T06:44:25.032Z,8.199
2023-05-23T06:45:25.873Z,8.5
2023-05-23T06:46:25.181Z,8.199
2023-05-23T06:47:25.676Z,8.100
2023-05-23T06:48:25.360Z,7.900
2023-05-23T06:49:25.135Z,8.100
2023-05-23T06:51:25.344Z,7.800
2023-05-23T06:52:25.261Z,8.5
2023-05-23T06:53:25.522Z,8.100
2023-05-23T06:54:25.461Z,8
2023-05-23T06:55:25.601Z,8.199
2023-05-23T06:56:25.166Z,8.699
2023-05-23T06:57:25.423Z,8.5
2023-05-23T06:58:25.323Z,8.199
2023-05-23T06:59:25.457Z,8.100
2023-05-23T07:00:26.302Z,7.800
2023-05-23T07:01:25.278Z,7.900
2023-05-23T07:02:25.348Z,8.199
2023-05-23T07:03:25.623Z,8
2023-05-23T07:04:25.685Z,8.699
2023-05-23T07:05:25.941Z,8.199
2023-05-23T07:06:25.329Z,7.800
2023-05-23T07:07:25.488Z,7.699
2023-05-23T07:08:25.361Z,8
2023-05-23T07:10:24.965Z,8.399
2023-05-23T07:11:25.113Z,8.199
2023-05-23T07:12:25.073Z,8.300
2023-05-23T07:13:24.862Z,8.100
2023-05-23T07:15:25.509Z,8.199
2023-05-23T07:16:25.279Z,8
2023-05-23T07:17:25.303Z,8.300
2023-05-23T07:18:25.112Z,8.600
2023-05-23T07:19:24.988Z,8.5
2023-05-23T07:20:24.968Z,8.199
2023-05-23T07:21:25.102Z,7.5
2023-05-23T07:22:25.414Z,7.800
2023-05-23T07:23:25.586Z,8
2023-05-23T07:24:25.792Z,8.399
2023-05-23T07:25:25.710Z,7.5
2023-05-23T07:26:25.151Z,7.699
2023-05-23T07:27:25.234Z,8.399
2023-05-23T07:28:25.208Z,8.100
2023-05-23T07:29:25.142Z,8.300
2023-05-23T07:30:26.073Z,7.800
2023-05-23T07:31:25.647Z,8
2023-05-23T07:33:24.870Z,7.400
2023-05-23T07:34:24.952Z,7.699
2023-05-23T07:35:25.160Z,8
2023-05-23T07:36:25.345Z,7.900
2023-05-23T07:37:25.401Z,7.400
2023-05-23T07:38:25.292Z,7.599
2023-05-23T07:39:24.964Z,7.199
2023-05-23T07:40:24.931Z,6.800
2023-05-23T07:41:25.188Z,6.900
2023-05-23T07:42:24.977Z,7
2023-05-23T07:43:24.808Z,6.5
2023-05-23T07:44:25.530Z,6.599
2023-05-23T07:45:25.782Z,6.400
2023-05-23T07:46:25.809Z,6.199
2023-05-23T07:47:25.116Z,6.5
2023-05-23T07:49:30.018Z,6.400
2023-05-23T07:50:25.676Z,6.199
2023-05-23T07:51:30.089Z,6.300
2023-05-23T07:52:25.506Z,5.699
2023-05-23T07:53:25.440Z,6.5
2023-05-23T07:54:25.046Z,5.800
2023-05-23T07:55:25.715Z,6.599
2023-05-23T07:57:32.160Z,6.199
2023-05-23T07:58:25.218Z,6.099
2023-05-23T07:59:33.365Z,6.300
2023-05-23T08:00:26.707Z,6.099
2023-05-23T08:01:33.789Z,6
2023-05-23T08:03:25.257Z,5.800
2023-05-23T08:04:25.355Z,5.699
2023-05-23T08:05:25.872Z,5.900
2023-05-23T08:06:25.108Z,6.099
2023-05-23T08:08:25.076Z,6.199
2023-05-23T08:09:25.315Z,5.800
2023-05-23T08:10:25.445Z,5.900
2023-05-23T08:11:25.794Z,5.400
2023-05-23T08:12:25.556Z,5.800
2023-05-23T08:13:39.636Z,6.199
2023-05-23T08:14:31.756Z,6.099
2023-05-23T08:15:26.030Z,6
2023-05-23T08:16:25.048Z,5.800
2023-05-23T08:17:25.020Z,5.5
2023-05-23T08:18:24.770Z,6.199
2023-05-23T08:19:25.887Z,6
2023-05-23T08:20:25.067Z,5.5
2023-05-23T08:21:24.614Z,6.099
2023-05-23T08:22:25.532Z,6.5
2023-05-23T08:23:25.226Z,6.599
2023-05-23T08:24:25.423Z,6.199
2023-05-23T08:25:25.554Z,6.5
2023-05-23T08:26:25.770Z,6.300
2023-05-23T08:27:25.579Z,6.599
2023-05-23T08:28:25.442Z,6.099
2023-05-23T08:29:25.263Z,5.599
2023-05-23T08:30:25.643Z,6.199
2023-05-23T08:31:25.252Z,6.599
2023-05-23T08:32:25.969Z,6.199
2023-05-23T08:34:25.519Z,6.400
2023-05-23T08:35:25.261Z,7.099
2023-05-23T08:36:25.034Z,6.699
2023-05-23T08:37:24.875Z,6.599
2023-05-23T08:38:25.681Z,6.699
2023-05-23T08:39:25.397Z,6.800
2023-05-23T08:40:25.940Z,6.5
2023-05-23T08:41:24.895Z,6.599
2023-05-23T08:42:25.025Z,6.900
2023-05-23T08:43:25.049Z,6.699
2023-05-23T08:44:25.269Z,7
2023-05-23T08:45:25.426Z,6.5
2023-05-23T08:46:25.550Z,6.599
2023-05-23T08:47:25.664Z,6.400
2023-05-23T08:48:25.780Z,6.199
2023-05-23T08:49:25.837Z,6.400
2023-05-23T08:50:25.203Z,6.300
2023-05-23T08:52:25.523Z,6.599
2023-05-23T08:53:25.382Z,6.699
2023-05-23T08:54:25.576Z,6.400
2023-05-23T08:55:26.020Z,6.699
2023-05-23T08:56:25.698Z,6.300
2023-05-23T08:58:25.569Z,6.099
2023-05-23T09:00:26.327Z,6.199
2023-05-23T09:01:25.146Z,5.900
2023-05-23T09:02:24.676Z,6.099
2023-05-23T09:03:25.468Z,6
2023-05-23T09:06:25.696Z,5.900
2023-05-23T09:08:25.755Z,6.099
2023-05-23T09:09:25.702Z,6.199
2023-05-23T09:10:24.956Z,6.599
2023-05-23T09:11:25.365Z,6.5
2023-05-23T09:12:25.613Z,7
2023-05-23T09:13:25.340Z,7.5
2023-05-23T09:14:25.160Z,8
2023-05-23T09:15:25.168Z,8.5
2023-05-23T09:16:25.053Z,7.400
2023-05-23T09:17:25.591Z,7.5
2023-05-23T09:18:25.317Z,7.199
2023-05-23T09:19:25.327Z,7
2023-05-23T09:21:25.593Z,7.099
2023-05-23T09:22:25.390Z,6.599
2023-05-23T09:23:25.108Z,6.900
2023-05-23T09:24:24.968Z,7.199
2023-05-23T09:25:25.217Z,7.300
2023-05-23T09:26:24.942Z,6.800
2023-05-23T09:27:25.800Z,7.199
2023-05-23T09:28:25.393Z,7.300
2023-05-23T09:29:24.967Z,7.400
2023-05-23T09:30:25.305Z,7.5
2023-05-23T09:31:25.306Z,7.400
2023-05-23T09:32:25.600Z,7.199
2023-05-23T09:33:25.708Z,7.5
2023-05-23T09:34:26.103Z,6.800
2023-05-23T09:35:25.172Z,7.699
2023-05-23T09:36:25.470Z,8
2023-05-23T09:37:25.810Z,6.900
2023-05-23T09:38:25.272Z,7.400
2023-05-23T09:39:25.349Z,7.300
2023-05-23T09:40:25.659Z,7.400
2023-05-23T09:41:25.140Z,7.099
2023-05-23T09:42:25.493Z,7.400
2023-05-23T09:43:25.520Z,6.900
2023-05-23T09:44:25.721Z,7.400
2023-05-23T09:45:26.058Z,7.300
2023-05-23T09:46:25.412Z,7.599
2023-05-23T09:47:26.054Z,7.199
2023-05-23T09:48:25.338Z,7.599
2023-05-23T09:49:25.054Z,7.699
2023-05-23T09:50:25.572Z,7.099
2023-05-23T09:51:25.590Z,7.900
2023-05-23T09:52:25.764Z,7.599
2023-05-23T09:54:25.760Z,8.399
2023-05-23T09:55:25.902Z,7.5
2023-05-23T09:56:25.516Z,8
2023-05-23T09:57:25.271Z,7.800
2023-05-23T09:58:25.730Z,8.5
2023-05-23T09:59:25.722Z,7.5
2023-05-23T10:00:26.359Z,8.100
2023-05-23T10:01:25.565Z,8
2023-05-23T10:02:25.938Z,7
2023-05-23T10:03:24.988Z,6.300
2023-05-23T10:04:25.149Z,6.5
2023-05-23T10:05:25.345Z,6
2023-05-23T10:06:25.162Z,6.300
2023-05-23T10:07:25.028Z,5.900
2023-05-23T10:08:25.163Z,5.5
2023-05-23T10:10:26.008Z,5.400
2023-05-23T10:11:25.643Z,5.5
2023-05-23T10:12:25.857Z,5.199
2023-05-23T10:13:25.413Z,5.400
2023-05-23T10:14:30.369Z,6
2023-05-23T10:16:25.373Z,6.300
2023-05-23T10:17:25.651Z,6.400
2023-05-23T10:18:29.960Z,5.300
2023-05-23T10:19:25.442Z,6.199
2023-05-23T10:20:25.064Z,6.5
2023-05-23T10:21:24.810Z,6.300
2023-05-23T10:22:26.753Z,6.900
2023-05-23T10:23:26.155Z,6
2023-05-23T10:24:26.359Z,6.400
2023-05-23T10:25:26.594Z,6.300
2023-05-23T10:26:26.154Z,6.800
2023-05-23T10:28:26.250Z,6.699
2023-05-23T10:29:25.908Z,7.199
2023-05-23T10:30:27.029Z,6.599
2023-05-23T10:31:26.335Z,7.199
2023-05-23T10:32:26.574Z,7.099
2023-05-23T10:33:26.706Z,7.199
2023-05-23T10:34:26.358Z,6.900
2023-05-23T10:35:26.250Z,7.300
2023-05-23T10:36:26.216Z,6.900
2023-05-23T10:38:26.347Z,7
2023-05-23T10:39:25.930Z,7.5
2023-05-23T10:40:26.738Z,6.699
2023-05-23T10:41:26.060Z,7
2023-05-23T10:42:25.973Z,6.599
2023-05-23T10:43:25.995Z,7.099
2023-05-23T10:44:26.556Z,6.800
2023-05-23T10:46:27.281Z,6.5
2023-05-23T10:47:26.529Z,6.400
2023-05-23T10:49:27.163Z,6.699
2023-05-23T10:50:26.993Z,6.199
2023-05-23T10:51:27.019Z,7.099
2023-05-23T10:52:26.168Z,6.5
2023-05-23T10:53:26.687Z,6.400
2023-05-23T10:54:26.029Z,6.199
2023-05-23T10:55:26.705Z,6.599
2023-05-23T10:56:26.335Z,7.099
2023-05-23T10:58:25.659Z,6.800
2023-05-23T10:59:26.375Z,7.099
2023-05-23T11:00:26.896Z,7.199
2023-05-23T11:02:25.583Z,6.900
2023-05-23T11:03:26.814Z,6.599
2023-05-23T11:04:25.732Z,6.300
2023-05-23T11:05:25.580Z,6.5
2023-05-23T11:06:26.149Z,6.699
2023-05-23T11:07:25.911Z,6.800
2023-05-23T11:08:35.440Z,7
2023-05-23T11:09:25.450Z,6.099
2023-05-23T11:10:26.178Z,6.5
2023-05-23T11:11:26.212Z,6.400
2023-05-23T11:12:25.808Z,6.800
2023-05-23T11:13:25.431Z,6.400
2023-05-23T11:14:26.201Z,6.099
2023-05-23T11:16:25.762Z,6.199
2023-05-23T11:17:26.028Z,5.900
2023-05-23T11:18:26.006Z,5.699
2023-05-23T11:19:26.490Z,5.900
2023-05-23T11:20:25.401Z,5.5
2023-05-23T11:22:25.594Z,5.800
2023-05-23T11:23:25.488Z,5.400
2023-05-23T11:24:25.804Z,5.599
2023-05-23T11:25:26.261Z,5.699
2023-05-23T11:26:26.144Z,6
2023-05-23T11:27:26.237Z,5.599
2023-05-23T11:28:26.283Z,6
2023-05-23T11:29:26.286Z,6.599
2023-05-23T11:30:26.487Z,5.900
2023-05-23T11:31:25.892Z,6
2023-05-23T11:32:25.959Z,6.199
2023-05-23T11:33:25.915Z,5.699
2023-05-23T11:34:25.032Z,6.099
2023-05-23T11:35:24.937Z,6.400
2023-05-23T11:36:25.694Z,6.099
2023-05-23T11:37:27.261Z,6.5
2023-05-23T11:38:25.364Z,5.800
2023-05-23T11:39:25.003Z,6.400
2023-05-23T11:40:24.928Z,5.900
2023-05-23T11:41:25.519Z,6.300
2023-05-23T11:42:25.809Z,6.199
2023-05-23T11:43:25.259Z,5.800
2023-05-23T11:44:25.180Z,6
2023-05-23T11:45:26.087Z,5.699
2023-05-23T11:46:25.297Z,5.400
2023-05-23T11:47:25.428Z,5.599
2023-05-23T11:48:25.106Z,5.199
2023-05-23T11:49:25.645Z,5.599
2023-05-23T11:50:25.968Z,5.900
2023-05-23T11:51:25.504Z,5.5
2023-05-23T11:53:25.988Z,5.199
2023-05-23T11:54:24.754Z,5
2023-05-23T11:55:25.808Z,5.300
2023-05-23T11:56:25.292Z,4.900
2023-05-23T11:57:25.144Z,5.099
2023-05-23T11:59:25.166Z,5.199
2023-05-23T12:00:25.859Z,5.599
2023-05-23T12:01:24.915Z,5.5
2023-05-23T12:02:24.962Z,5.300
2023-05-23T12:03:25.443Z,5
2023-05-23T12:04:25.343Z,4.699
2023-05-23T12:05:25.519Z,4.800
2023-05-23T12:06:25.609Z,4.400
2023-05-23T12:07:25.628Z,4.599
2023-05-23T12:08:25.619Z,4.5
2023-05-23T12:09:25.457Z,4.199
2023-05-23T12:10:25.327Z,4.400
2023-05-23T12:11:25.314Z,4.5
2023-05-23T12:12:25.008Z,4.900
2023-05-23T12:13:24.806Z,5
2023-05-23T12:14:25.403Z,4.599
2023-05-23T12:15:24.810Z,4.699
2023-05-23T12:16:25.543Z,4.5
2023-05-23T12:17:25.480Z,5.300
2023-05-23T12:18:25.608Z,5
2023-05-23T12:19:25.628Z,4.800
2023-05-23T12:20:25.875Z,5.400
2023-05-23T12:21:25.326Z,5.300
2023-05-23T12:22:25.437Z,5.699
2023-05-23T12:23:25.053Z,6
2023-05-23T12:24:25.225Z,5.400
2023-05-23T12:25:25.806Z,5.599
2023-05-23T12:26:26.116Z,5.300
2023-05-23T12:27:25.301Z,5.400
2023-05-23T12:28:25.489Z,5.300
2023-05-23T12:29:25.724Z,4.599
2023-05-23T12:30:25.594Z,4.800
2023-05-23T12:31:25.065Z,5.199
2023-05-23T12:34:25.943Z,5.400
2023-05-23T12:35:25.695Z,4.800
2023-05-23T12:36:26.117Z,4.900
2023-05-23T12:37:25.086Z,5.199
2023-05-23T12:38:25.225Z,5.300
2023-05-23T12:39:25.702Z,5.5
2023-05-23T12:40:25.993Z,5.199
2023-05-23T12:41:25.051Z,5.5
2023-05-23T12:43:25.808Z,5.099
2023-05-23T12:44:25.617Z,5.300
2023-05-23T12:46:25.701Z,5
2023-05-23T12:47:25.956Z,5.099
2023-05-23T12:48:25.759Z,4.699
2023-05-23T12:49:26.182Z,5
2023-05-23T12:50:25.338Z,5.099
2023-05-23T12:52:25.681Z,4.900
2023-05-23T12:53:25.836Z,4.699
2023-05-23T12:55:25.134Z,5.099
2023-05-23T12:56:25.382Z,5.199
2023-05-23T12:57:25.676Z,5.300
2023-05-23T12:59:25.323Z,6.400
2023-05-23T13:00:26.052Z,5.599
2023-05-23T13:02:25.426Z,6.400
2023-05-23T13:03:25.235Z,6.199
2023-05-23T13:04:25.471Z,6
2023-05-23T13:05:25.560Z,5.900
2023-05-23T13:06:25.141Z,6.199
2023-05-23T13:07:25.101Z,6.5
2023-05-23T13:08:25.483Z,6.199
2023-05-23T13:09:25.359Z,6.400
2023-05-23T13:10:25.596Z,6.099
2023-05-23T13:11:25.537Z,5.900
2023-05-23T13:12:25.666Z,6.199
2023-05-23T13:13:25.815Z,5.599
2023-05-23T13:14:25.280Z,5.699
2023-05-23T13:15:26.199Z,6.300
2023-05-23T13:17:25.568Z,6
2023-05-23T13:18:25.224Z,5.900
2023-05-23T13:19:25.417Z,6.5
2023-05-23T13:20:25.814Z,5.599
2023-05-23T13:21:25.911Z,6
2023-05-23T13:22:25.215Z,6.099
2023-05-23T13:25:25.642Z,5.800
2023-05-23T13:26:25.122Z,6.199
2023-05-23T13:28:25.660Z,5.900
2023-05-23T13:29:25.287Z,6
2023-05-23T13:30:25.834Z,5.800
2023-05-23T13:31:25.954Z,5.300
2023-05-23T13:32:25.429Z,5.800
2023-05-23T13:33:25.848Z,6.099
2023-05-23T13:34:25.001Z,5.699
2023-05-23T13:35:25.200Z,5.400
2023-05-23T13:36:25.860Z,5.900
2023-05-23T13:37:25.429Z,5.5
2023-05-23T13:38:26.887Z,6
2023-05-23T13:39:25.802Z,5.5
2023-05-23T13:40:25.735Z,5.300
2023-05-23T13:41:25.316Z,5
2023-05-23T13:42:25.130Z,4.900
2023-05-23T13:43:25.512Z,5.099
2023-05-23T13:44:26.022Z,5.699
2023-05-23T13:45:25.828Z,5.400
2023-05-23T13:46:25.529Z,5.199
2023-05-23T13:47:26.111Z,5.800
2023-05-23T13:48:25.809Z,5.5
2023-05-23T13:49:25.020Z,5.199
2023-05-23T13:50:25.837Z,5.400
2023-05-23T13:51:25.557Z,4.800
2023-05-23T13:52:25.672Z,4.900
2023-05-23T13:53:24.954Z,5.099
2023-05-23T13:54:25.173Z,5.199
2023-05-23T13:55:25.720Z,5.400
2023-05-23T13:56:25.657Z,4.900
2023-05-23T13:57:25.870Z,5.099
2023-05-23T13:58:25.362Z,4.800
2023-05-23T13:59:25.756Z,5.400
2023-05-23T14:00:26.206Z,5
2023-05-23T14:01:25.919Z,5.099
2023-05-23T14:02:25.631Z,4.800
2023-05-23T14:03:25.839Z,5
2023-05-23T14:04:24.994Z,4.800
2023-05-23T14:05:25.908Z,5
2023-05-23T14:06:25.401Z,4.699
2023-05-23T14:07:25.901Z,4.400
2023-05-23T14:09:26.004Z,4.199
2023-05-23T14:10:25.303Z,3.900
2023-05-23T14:11:25.963Z,4.300
2023-05-23T14:12:25.448Z,3.799
2023-05-23T14:14:25.877Z,3.700
2023-05-23T14:15:26.423Z,3.599
2023-05-23T14:16:25.418Z,3.5
2023-05-23T14:17:26.124Z,3.200